Time;durP1;ratioP1;P1;durP2;ratioP2;P2;SDS_P1;SDS_P2;PMS_P1;PMS_P2;Temp;Humidity;BMP_temperature;BMP_pressure;BME280_temperature;BME280_humidity;BME280_pressure;Samples;Min_cycle;Max_cycle;Signal;HPM_P1;HPM_P2
2024/01/07 00:01:38;;;;;;;;;3.25;1.50;;;;;5.38;100.00;101553.59;5048673;28;45420;-82
2024/01/07 00:04:03;;;;;;;;;1.00;1.00;;;;;5.18;100.00;101528.53;5059079;28;45587;-82
2024/01/07 00:06:29;;;;;;;;;2.25;2.25;;;;;5.29;100.00;101549.38;5054772;28;45617;-82
2024/01/07 00:08:54;;;;;;;;;2.75;2.75;;;;;4.92;100.00;101464.22;5054991;28;45474;-82
2024/01/07 00:11:19;;;;;;;;;2.75;2.25;;;;;5.18;100.00;101532.91;5039382;28;45566;-82
2024/01/07 00:13:45;;;;;;;;;3.00;2.00;;;;;5.20;100.00;101531.16;5051561;28;45630;-83
2024/01/07 00:16:11;;;;;;;;;1.75;1.75;;;;;5.44;100.00;101585.88;5061614;28;45473;-83
2024/01/07 00:18:36;;;;;;;;;0.25;0.00;;;;;5.58;100.00;101630.28;5046334;28;46344;-83
2024/01/07 00:21:02;;;;;;;;;3.00;2.00;;;;;5.13;100.00;101563.56;5048303;28;45480;-82
2024/01/07 00:23:27;;;;;;;;;2.25;1.00;;;;;5.16;100.00;101579.25;5040363;28;45415;-81
2024/01/07 00:25:52;;;;;;;;;4.00;2.25;;;;;5.06;100.00;101525.22;5041238;28;45383;-81
2024/01/07 00:28:18;;;;;;;;;1.25;1.25;;;;;5.17;100.00;101546.91;5040685;28;45435;-83
2024/01/07 00:30:43;;;;;;;;;1.25;1.25;;;;;5.11;100.00;101558.34;5048932;28;45502;-82
2024/01/07 00:33:09;;;;;;;;;1.75;1.75;;;;;4.96;100.00;101527.09;5052941;28;45340;-81
2024/01/07 00:35:34;;;;;;;;;1.25;1.25;;;;;5.15;100.00;101580.13;5047045;28;45450;-81
2024/01/07 00:37:59;;;;;;;;;4.75;3.00;;;;;4.96;100.00;101527.09;5048092;28;45393;-82
2024/01/07 00:40:26;;;;;;;;;1.00;1.00;;;;;5.44;100.00;101630.47;5049845;28;45424;-82
2024/01/07 00:42:52;;;;;;;;;1.50;1.50;;;;;5.53;100.00;101640.84;5041706;28;45509;-82
2024/01/07 00:45:18;;;;;;;;;2.50;2.00;;;;;5.56;100.00;101622.41;5049128;28;45286;-81
2024/01/07 00:47:43;;;;;;;;;2.25;1.00;;;;;5.44;100.00;101619.97;5044265;28;46364;-82
2024/01/07 00:50:09;;;;;;;;;1.00;1.00;;;;;4.90;100.00;101516.69;5047675;28;45429;-82
2024/01/07 00:52:36;;;;;;;;;1.00;1.00;;;;;5.20;100.00;101571.31;5046796;28;45603;-83
2024/01/07 00:55:03;;;;;;;;;3.50;2.00;;;;;4.91;100.00;101544.59;5059716;28;45358;-83
2024/01/07 00:57:31;;;;;;;;;3.00;1.75;;;;;4.99;100.00;101549.75;5046683;28;45476;-82
2024/01/07 00:59:56;;;;;;;;;3.00;1.25;;;;;5.05;100.00;101584.63;5049513;28;45418;-82
2024/01/07 01:02:21;;;;;;;;;1.25;1.25;;;;;5.09;100.00;101586.34;5046540;28;45431;-83
2024/01/07 01:04:47;;;;;;;;;1.75;1.75;;;;;5.19;100.00;101605.44;5040820;28;45234;-82
2024/01/07 01:07:12;;;;;;;;;2.00;1.25;;;;;5.13;100.00;101606.41;5042881;28;46377;-82
2024/01/07 01:09:38;;;;;;;;;2.25;1.75;;;;;4.56;100.00;101520.56;5049830;28;45280;-82
2024/01/07 01:12:09;;;;;;;;;0.50;0.50;;;;;5.54;100.00;101668.81;5044926;28;45413;-82
2024/01/07 01:14:34;;;;;;;;;1.75;1.00;;;;;4.65;100.00;101530.94;5050172;28;45357;-82
2024/01/07 01:17:00;;;;;;;;;1.75;1.25;;;;;5.52;100.00;101683.72;5057930;28;46321;-82
2024/01/07 01:19:25;;;;;;;;;2.75;0.25;;;;;5.34;100.00;101652.44;5052246;28;45301;-81
2024/01/07 01:21:51;;;;;;;;;1.00;1.00;;;;;5.54;100.00;101691.56;5041151;28;45357;-82
2024/01/07 01:24:16;;;;;;;;;3.00;1.50;;;;;4.99;100.00;101608.31;5065721;28;45517;-82
2024/01/07 01:26:42;;;;;;;;;2.00;2.00;;;;;4.79;100.00;101562.22;5063895;28;46988;-81
2024/01/07 01:29:07;;;;;;;;;1.00;1.00;;;;;5.35;100.00;101643.69;5050183;28;45340;-81
2024/01/07 01:31:32;;;;;;;;;1.00;1.00;;;;;5.13;100.00;101631.75;5049148;28;45325;-81
2024/01/07 01:33:58;;;;;;;;;1.75;1.00;;;;;5.38;100.00;101684.75;5038401;28;45495;-82
2024/01/07 01:36:24;;;;;;;;;1.75;1.00;;;;;4.81;100.00;101569.19;5045311;28;45392;-81
2024/01/07 01:38:52;;;;;;;;;1.00;1.00;;;;;5.40;100.00;101691.72;5037707;28;45394;-81
2024/01/07 01:41:18;;;;;;;;;1.50;1.50;;;;;4.81;100.00;101611.09;5040733;28;45482;-81
2024/01/07 01:43:43;;;;;;;;;2.00;2.00;;;;;5.21;100.00;101677.06;5050718;28;45552;-81
2024/01/07 01:46:09;;;;;;;;;1.25;1.25;;;;;4.76;100.00;101594.59;5059260;28;46156;-82
2024/01/07 01:48:36;;;;;;;;;2.50;1.25;;;;;4.91;100.00;101607.50;5037236;28;45387;-82
2024/01/07 01:51:02;;;;;;;;;1.25;1.00;;;;;4.84;100.00;101605.88;5042515;28;45422;-82
2024/01/07 01:53:28;;;;;;;;;1.00;1.00;;;;;4.92;100.00;101619.72;5043095;28;45246;-82
2024/01/07 01:55:57;;;;;;;;;1.75;0.75;;;;;4.73;100.00;101564.03;5045413;28;46668;-82
2024/01/07 01:58:23;;;;;;;;;3.75;2.00;;;;;5.30;100.00;101712.84;5045816;28;45486;-82
2024/01/07 02:00:50;;;;;;;;;1.00;1.00;;;;;4.49;100.00;101545.97;5040951;28;45493;-82
2024/01/07 02:03:16;;;;;;;;;2.25;1.00;;;;;5.51;100.00;101716.06;5048202;28;45392;-83
2024/01/07 02:05:42;;;;;;;;;1.00;1.00;;;;;5.46;100.00;101685.53;5052412;28;45524;-81
2024/01/07 02:08:08;;;;;;;;;3.00;1.00;;;;;4.92;100.00;101592.66;5050775;28;45288;-82
2024/01/07 02:10:36;;;;;;;;;1.00;1.00;;;;;4.90;100.00;101605.78;5055128;28;45470;-81
2024/01/07 02:13:04;;;;;;;;;1.00;1.00;;;;;5.03;100.00;101638.84;5041469;28;45494;-81
2024/01/07 02:15:30;;;;;;;;;2.00;2.00;;;;;5.11;100.00;101638.72;5040578;28;45473;-81
2024/01/07 02:17:56;;;;;;;;;1.00;1.00;;;;;4.59;100.00;101546.72;5039244;28;45295;-80
2024/01/07 02:20:21;;;;;;;;;3.75;1.00;;;;;5.03;100.00;101641.47;5050210;28;45489;-81
2024/01/07 02:22:46;;;;;;;;;2.00;2.00;;;;;4.62;100.00;101570.28;5030785;28;45442;-81
2024/01/07 02:25:12;;;;;;;;;2.50;1.00;;;;;4.95;100.00;101618.81;5051525;28;46213;-81
2024/01/07 02:27:37;;;;;;;;;2.00;2.00;;;;;5.30;100.00;101679.59;5049945;28;45422;-79
2024/01/07 02:30:03;;;;;;;;;2.50;2.50;;;;;4.93;100.00;101599.63;5043622;28;45531;-81
2024/01/07 02:32:32;;;;;;;;;5.25;2.00;;;;;5.30;100.00;101673.50;5031414;28;45278;-80
2024/01/07 02:35:02;;;;;;;;;1.75;1.00;;;;;5.64;100.00;101738.66;5038404;28;45592;-81
2024/01/07 02:37:28;;;;;;;;;1.00;1.00;;;;;5.48;100.00;101702.13;5049189;28;45504;-81
2024/01/07 02:39:54;;;;;;;;;1.75;1.75;;;;;5.08;100.00;101628.28;5039570;28;45341;-81
2024/01/07 02:42:19;;;;;;;;;1.00;1.00;;;;;4.67;100.00;101556.25;5043498;28;45483;-81
2024/01/07 02:44:44;;;;;;;;;1.00;1.00;;;;;4.82;100.00;101618.09;5037987;28;45450;-81
2024/01/07 02:47:10;;;;;;;;;0.33;0.00;;;;;5.00;100.00;101617.91;5037656;28;45451;-81
2024/01/07 02:49:36;;;;;;;;;2.00;1.00;;;;;4.51;100.00;101565.16;5041377;28;45527;-81
2024/01/07 02:52:05;;;;;;;;;1.00;1.00;;;;;4.59;100.00;101579.03;5045250;28;45500;-81
2024/01/07 02:54:31;;;;;;;;;1.00;1.00;;;;;4.43;100.00;101561.75;5054918;28;46217;-81
2024/01/07 02:56:56;;;;;;;;;2.00;1.00;;;;;4.88;100.00;101635.50;5058021;28;45694;-81
2024/01/07 02:59:22;;;;;;;;;1.50;0.50;;;;;4.92;100.00;101652.94;5045076;28;45719;-81
2024/01/07 03:01:48;;;;;;;;;1.00;1.00;;;;;4.40;100.00;101579.22;5044912;28;45430;-81
2024/01/07 03:04:18;;;;;;;;;1.00;1.00;;;;;5.06;100.00;101683.38;5044251;28;46845;-81
2024/01/07 03:06:43;;;;;;;;;0.25;0.25;;;;;4.76;100.00;101651.34;5045362;28;45544;-82
2024/01/07 03:09:10;;;;;;;;;1.75;1.00;;;;;4.26;100.00;101571.50;5053509;28;45398;-81
2024/01/07 03:11:40;;;;;;;;;2.00;0.50;;;;;4.95;100.00;101679.97;5043234;28;45755;-81
2024/01/07 03:14:05;;;;;;;;;2.75;1.25;;;;;4.51;100.00;101582.63;5044547;28;45412;-81
2024/01/07 03:16:30;;;;;;;;;4.75;1.25;;;;;4.25;100.00;101561.94;5045168;28;45476;-80
2024/01/07 03:19:06;;;;;;;;;3.50;2.00;;;;;4.76;100.00;101653.97;5057182;28;45486;-80
2024/01/07 03:21:41;;;;;;;;;0.25;0.25;;;;;4.83;100.00;101658.28;5042420;28;45431;-81
2024/01/07 03:24:10;;;;;;;;;0.25;0.25;;;;;4.37;100.00;101588.00;5041673;28;46492;-81
2024/01/07 03:26:50;;;;;;;;;0.00;0.00;;;;;4.05;100.00;101569.09;5057208;28;45368;-81
2024/01/07 03:29:15;;;;;;;;;0.00;0.00;;;;;4.29;100.00;101607.28;5050187;28;45477;-81
2024/01/07 03:31:47;;;;;;;;;0.50;0.50;;;;;4.92;100.00;101692.25;5059784;28;45702;-81
2024/01/07 03:34:19;;;;;;;;;1.25;1.25;;;;;4.12;100.00;101583.88;5039497;28;46299;-81
2024/01/07 03:36:48;;;;;;;;;1.00;1.00;;;;;3.92;100.00;101563.09;5043881;28;45830;-80
2024/01/07 03:39:14;;;;;;;;;0.25;0.25;;;;;4.19;100.00;101582.91;5037683;28;45390;-81
2024/01/07 03:41:48;;;;;;;;;3.75;1.00;;;;;4.47;100.00;101643.78;5045262;28;45732;-82
2024/01/07 03:44:14;;;;;;;;;3.50;2.00;;;;;4.96;100.00;101767.34;5041132;28;45481;-82
2024/01/07 03:46:39;;;;;;;;;2.75;1.75;;;;;4.49;100.00;101661.19;5052842;28;45495;-80
2024/01/07 03:49:05;;;;;;;;;4.25;1.00;;;;;4.47;100.00;101676.06;5042866;28;45745;-80
2024/01/07 03:51:33;;;;;;;;;1.75;0.75;;;;;3.83;100.00;101557.06;5049757;28;45442;-81
2024/01/07 03:53:59;;;;;;;;;1.00;1.00;;;;;4.86;100.00;101726.38;5040235;28;45713;-81
2024/01/07 03:56:24;;;;;;;;;4.75;1.75;;;;;4.47;100.00;101669.97;5040632;28;45470;-81
2024/01/07 03:58:50;;;;;;;;;3.50;1.00;;;;;4.59;100.00;101677.72;5045110;28;45573;-81
2024/01/07 04:01:17;;;;;;;;;1.50;1.50;;;;;5.01;100.00;101782.16;5051800;28;45251;-81
2024/01/07 04:03:43;;;;;;;;;2.00;0.00;;;;;4.82;100.00;101750.88;5046537;28;46606;-81
2024/01/07 04:06:08;;;;;;;;;1.00;1.00;;;;;4.10;100.00;101599.56;5053267;28;45385;-81
2024/01/07 04:08:39;;;;;;;;;1.00;1.00;;;;;4.81;100.00;101743.91;5046683;28;45361;-80
2024/01/07 04:11:10;;;;;;;;;1.25;1.25;;;;;3.88;100.00;101582.28;5041595;28;45341;-80
2024/01/07 04:13:36;;;;;;;;;2.25;1.00;;;;;4.72;100.00;101705.53;5045657;28;45442;-80
2024/01/07 04:16:05;;;;;;;;;1.00;0.75;;;;;4.34;100.00;101648.25;5053059;28;45554;-80
2024/01/07 04:18:36;;;;;;;;;1.75;0.25;;;;;4.17;100.00;101618.72;5050594;28;45210;-80
2024/01/07 04:21:01;;;;;;;;;2.00;1.00;;;;;4.33;100.00;101669.19;5046067;28;45462;-80
2024/01/07 04:23:27;;;;;;;;;1.00;1.00;;;;;4.64;100.00;101720.47;5047035;28;45477;-80
2024/01/07 04:25:52;;;;;;;;;1.00;1.00;;;;;4.47;100.00;101678.69;5075723;28;45679;-81
2024/01/07 04:28:17;;;;;;;;;4.25;2.00;;;;;4.03;100.00;101625.78;5066005;28;45427;-80
2024/01/07 04:30:43;;;;;;;;;4.00;1.25;;;;;4.49;100.00;101700.50;5043960;28;45284;-80
2024/01/07 04:33:13;;;;;;;;;3.00;1.50;;;;;4.07;100.00;101606.56;5055834;28;46546;-81
2024/01/07 04:35:39;;;;;;;;;2.25;2.00;;;;;4.82;100.00;101736.03;5047479;28;45344;-81
2024/01/07 04:38:04;;;;;;;;;3.75;1.75;;;;;3.86;100.00;101580.59;5060825;28;45361;-81
2024/01/07 04:40:30;;;;;;;;;1.00;1.00;;;;;4.32;100.00;101667.47;5043615;28;45616;-81
2024/01/07 04:42:55;;;;;;;;;3.00;3.00;;;;;5.00;100.00;101776.94;5048123;28;46156;-81
2024/01/07 04:45:26;;;;;;;;;1.00;1.00;;;;;4.53;100.00;101677.75;5040463;28;45606;-81
2024/01/07 04:47:52;;;;;;;;;1.00;1.00;;;;;4.50;100.00;101673.44;5040779;28;45346;-82
2024/01/07 04:50:29;;;;;;;;;3.00;2.00;;;;;4.35;100.00;101685.78;5049105;28;45311;-81
2024/01/07 04:52:55;;;;;;;;;2.75;0.75;;;;;4.53;100.00;101694.34;5036324;28;46861;-81
2024/01/07 04:55:21;;;;;;;;;1.25;0.75;;;;;3.91;100.00;101576.16;5018138;28;45461;-81
2024/01/07 04:57:46;;;;;;;;;2.75;2.00;;;;;4.26;100.00;101649.16;5025511;28;45491;-80
2024/01/07 05:00:12;;;;;;;;;1.25;1.25;;;;;3.82;100.00;101589.31;5049916;28;45548;-81
2024/01/07 05:02:37;;;;;;;;;1.00;1.00;;;;;4.68;100.00;101766.69;5046997;28;46901;-81
2024/01/07 05:05:03;;;;;;;;;1.00;1.00;;;;;3.81;100.00;101609.38;5060215;28;45537;-81
2024/01/07 05:07:29;;;;;;;;;3.00;2.00;;;;;4.27;100.00;101701.53;5060206;28;45524;-81
2024/01/07 05:09:55;;;;;;;;;1.00;1.00;;;;;4.07;100.00;101656.31;5047915;28;45450;-81
2024/01/07 05:12:21;;;;;;;;;3.00;2.00;;;;;3.95;100.00;101657.25;5046450;28;45467;-80
2024/01/07 05:14:46;;;;;;;;;3.00;0.00;;;;;4.62;100.00;101754.53;5047967;28;45289;-81
2024/01/07 05:17:12;;;;;;;;;2.00;2.00;;;;;4.69;100.00;101774.56;5058795;28;45450;-81
2024/01/07 05:19:40;;;;;;;;;0.75;0.75;;;;;4.18;100.00;101683.28;5043583;28;45564;-80
2024/01/07 05:22:09;;;;;;;;;4.50;2.00;;;;;4.33;100.00;101696.25;5047385;28;46688;-81
2024/01/07 05:24:42;;;;;;;;;1.00;1.00;;;;;4.08;100.00;101640.59;5075179;28;45681;-81
2024/01/07 05:27:08;;;;;;;;;2.25;1.00;;;;;4.49;100.00;101715.34;5025709;28;45404;-80
2024/01/07 05:29:34;;;;;;;;;1.00;1.00;;;;;3.80;100.00;101605.00;5051856;28;45469;-81
2024/01/07 05:32:00;;;;;;;;;0.75;0.00;;;;;4.36;100.00;101716.31;5039008;28;45530;-80
2024/01/07 05:34:26;;;;;;;;;0.00;0.00;;;;;4.56;100.00;101757.19;5052208;28;45318;-80
2024/01/07 05:36:52;;;;;;;;;2.75;1.00;;;;;4.12;100.00;101670.25;5051465;28;45444;-80
2024/01/07 05:39:17;;;;;;;;;1.00;1.00;;;;;3.59;100.00;101592.97;5053963;28;45333;-81
2024/01/07 05:41:43;;;;;;;;;2.25;1.00;;;;;4.11;100.00;101697.28;5037428;28;47857;-81
2024/01/07 05:44:16;;;;;;;;;2.00;1.00;;;;;3.58;100.00;101593.84;5051778;28;45291;-81
2024/01/07 05:46:44;;;;;;;;;2.00;1.00;;;;;4.83;100.00;101824.25;5037690;28;45331;-81
2024/01/07 05:49:12;;;;;;;;;4.00;1.00;;;;;3.82;100.00;101639.91;5047249;28;45450;-81
2024/01/07 05:51:47;;;;;;;;;3.00;1.00;;;;;4.22;100.00;101719.88;5049194;28;45648;-82
2024/01/07 05:54:16;;;;;;;;;1.25;1.25;;;;;4.13;100.00;101706.00;5037202;28;45461;-81
2024/01/07 05:56:42;;;;;;;;;1.00;1.00;;;;;4.83;100.00;101794.56;5048481;28;45403;-81
2024/01/07 05:59:17;;;;;;;;;1.25;1.25;;;;;4.61;100.00;101786.84;5057824;28;45271;-80
2024/01/07 06:01:43;;;;;;;;;2.00;1.00;;;;;3.71;100.00;101615.53;5041349;28;46210;-81
2024/01/07 06:04:09;;;;;;;;;1.75;1.75;;;;;4.29;100.00;101710.25;5051623;28;45506;-81
2024/01/07 06:06:34;;;;;;;;;3.00;1.00;;;;;4.01;100.00;101645.88;5050999;28;45489;-81
2024/01/07 06:09:01;;;;;;;;;6.00;2.00;;;;;3.95;100.00;101635.47;5045666;28;45355;-80
2024/01/07 06:11:36;;;;;;;;;1.75;1.75;;;;;4.95;100.00;101844.25;5044172;28;45412;-80
2024/01/07 06:14:05;;;;;;;;;2.00;2.00;;;;;4.09;100.00;101688.59;5044135;28;45460;-80
2024/01/07 06:16:37;;;;;;;;;3.00;3.00;;;;;4.99;100.00;101830.25;5043735;28;45493;-80
2024/01/07 06:19:03;;;;;;;;;4.00;2.00;;;;;4.17;100.00;101695.50;5045542;28;45615;-81
2024/01/07 06:21:29;;;;;;;;;3.00;2.00;;;;;4.64;100.00;101770.25;5045723;28;47115;-80
2024/01/07 06:24:00;;;;;;;;;1.75;1.75;;;;;4.33;100.00;101719.81;5049316;28;45595;-80
2024/01/07 06:26:26;;;;;;;;;2.25;2.00;;;;;4.49;100.00;101747.63;5068695;28;45608;-80
2024/01/07 06:28:52;;;;;;;;;2.00;2.00;;;;;4.55;100.00;101754.56;5037355;28;45689;-80
2024/01/07 06:31:17;;;;;;;;;2.25;1.00;;;;;4.46;100.00;101742.44;5047344;28;45439;-80
2024/01/07 06:33:44;;;;;;;;;2.00;2.00;;;;;4.06;100.00;101644.09;5057510;28;45467;-80
2024/01/07 06:36:10;;;;;;;;;2.50;2.00;;;;;4.69;100.00;101785.03;5045061;28;45411;-81
2024/01/07 06:38:35;;;;;;;;;3.00;3.00;;;;;4.13;100.00;101659.75;5064486;28;45456;-81
2024/01/07 06:41:03;;;;;;;;;3.25;2.00;;;;;3.94;100.00;101644.19;5038518;28;48420;-81
2024/01/07 06:43:29;;;;;;;;;2.50;1.50;;;;;4.45;100.00;101716.25;5030946;28;45471;-81
2024/01/07 06:45:55;;;;;;;;;0.25;0.25;;;;;4.13;100.00;101696.41;5051754;28;45406;-81
2024/01/07 06:48:21;;;;;;;;;1.00;1.00;;;;;4.41;100.00;101746.84;5050123;28;45993;-81
2024/01/07 06:50:47;;;;;;;;;1.25;1.00;;;;;5.03;100.00;101835.47;5047122;28;47245;-81
2024/01/07 06:53:12;;;;;;;;;2.75;2.75;;;;;4.24;100.00;101709.41;5039641;28;45375;-81
2024/01/07 06:55:37;;;;;;;;;4.00;2.25;;;;;4.57;100.00;101794.75;5045315;28;45445;-80
2024/01/07 06:58:03;;;;;;;;;2.00;2.00;;;;;3.91;100.00;101658.16;5050152;28;45477;-80
2024/01/07 07:00:29;;;;;;;;;4.75;3.00;;;;;4.30;100.00;101732.06;5040385;28;47870;-80
2024/01/07 07:02:55;;;;;;;;;3.00;2.25;;;;;4.26;100.00;101735.56;5059384;28;45457;-80
2024/01/07 07:05:20;;;;;;;;;2.25;2.25;;;;;4.01;100.00;101686.00;5042869;28;45263;-80
2024/01/07 07:07:46;;;;;;;;;2.50;2.50;;;;;4.27;100.00;101748.66;5042372;28;45509;-80
2024/01/07 07:10:11;;;;;;;;;3.00;3.00;;;;;4.24;100.00;101729.50;5053759;28;46267;-80
2024/01/07 07:12:37;;;;;;;;;4.50;2.00;;;;;3.94;100.00;101691.28;5063820;28;45284;-80
2024/01/07 07:15:02;;;;;;;;;3.75;3.75;;;;;4.08;100.00;101726.09;5046998;28;45418;-79
2024/01/07 07:17:28;;;;;;;;;3.00;2.00;;;;;4.31;100.00;101754.75;5057098;28;45323;-80
2024/01/07 07:19:56;;;;;;;;;3.25;3.00;;;;;4.73;100.00;101886.34;5055109;28;45347;-80
2024/01/07 07:22:24;;;;;;;;;2.00;2.00;;;;;4.18;100.00;101762.69;5049767;28;45399;-80
2024/01/07 07:24:50;;;;;;;;;3.50;2.00;;;;;4.27;100.00;101827.22;5047628;28;45530;-81
2024/01/07 07:27:16;;;;;;;;;2.00;2.00;;;;;3.65;100.00;101696.66;5068969;28;45363;-81
2024/01/07 07:29:41;;;;;;;;;2.00;2.00;;;;;4.11;100.00;101795.00;5045441;28;46989;-81
2024/01/07 07:32:07;;;;;;;;;2.50;2.00;;;;;4.09;100.00;101804.59;5047905;28;45308;-80
2024/01/07 07:34:32;;;;;;;;;2.75;2.75;;;;;4.41;100.00;101846.34;5045164;28;45384;-80
2024/01/07 07:36:58;;;;;;;;;3.00;3.00;;;;;3.88;100.00;101761.97;5065293;28;45482;-81
2024/01/07 07:39:23;;;;;;;;;2.00;2.00;;;;;3.99;100.00;101778.50;5059430;28;46362;-80
2024/01/07 07:41:49;;;;;;;;;5.00;2.00;;;;;4.69;100.00;101887.22;5038773;28;45277;-80
2024/01/07 07:44:14;;;;;;;;;3.00;3.00;;;;;4.72;100.00;101902.94;5040414;28;45915;-80
2024/01/07 07:46:40;;;;;;;;;3.75;3.75;;;;;4.06;100.00;101790.66;5053478;28;45275;-78
2024/01/07 07:49:06;;;;;;;;;2.75;2.75;;;;;4.09;100.00;101790.66;5050556;28;45638;-81
2024/01/07 07:51:31;;;;;;;;;4.25;2.00;;;;;4.04;100.00;101768.88;5042882;28;45320;-81
2024/01/07 07:53:57;;;;;;;;;3.00;3.00;;;;;4.40;100.00;101812.31;5046886;28;45635;-81
2024/01/07 07:56:22;;;;;;;;;4.75;4.00;;;;;4.00;100.00;101733.13;5039918;28;45559;-80
2024/01/07 07:58:48;;;;;;;;;4.00;3.00;;;;;4.14;100.00;101768.81;5054948;28;46172;-79
2024/01/07 08:01:14;;;;;;;;;5.25;5.25;;;;;4.85;100.00;101879.25;5047854;28;45496;-80
2024/01/07 08:03:39;;;;;;;;;3.50;3.50;;;;;4.31;100.00;101810.63;5047578;28;45518;-80
2024/01/07 08:06:04;;;;;;;;;6.00;3.25;;;;;4.85;100.00;101885.38;5045168;28;45487;-80
2024/01/07 08:08:30;;;;;;;;;3.00;3.00;;;;;4.39;100.00;101832.38;5042973;28;45494;-80
2024/01/07 08:11:18;;;;;;;;;;;;;;;;;;;;;
2024/01/07 08:13:46;;;;;;;;;8.00;6.00;;;;;4.50;100.00;101835.81;5036402;28;69148;-79
2024/01/07 08:16:11;;;;;;;;;4.75;4.00;;;;;3.99;100.00;101760.19;5036742;28;45544;-82
2024/01/07 08:18:37;;;;;;;;;5.50;4.75;;;;;3.79;100.00;101710.56;5037869;28;47637;-79
2024/01/07 08:21:02;;;;;;;;;8.00;4.00;;;;;3.96;100.00;101753.19;5037088;28;45451;-79
2024/01/07 08:23:27;;;;;;;;;1.25;1.25;;;;;4.81;100.00;101904.63;5053482;28;45570;-80
2024/01/07 08:25:53;;;;;;;;;7.25;6.00;;;;;4.10;100.00;101788.03;5031490;28;45756;-79
2024/01/07 08:28:18;;;;;;;;;4.75;4.75;;;;;4.32;100.00;101835.91;5036528;28;46684;-78
2024/01/07 08:30:44;;;;;;;;;7.50;5.25;;;;;4.02;100.00;101768.91;5037844;28;45422;-79
2024/01/07 08:33:10;;;;;;;;;7.00;7.00;;;;;4.81;100.00;101877.56;5033028;28;45493;-79
2024/01/07 08:35:36;;;;;;;;;4.25;3.75;;;;;4.26;100.00;101807.13;5037927;28;45240;-79
2024/01/07 08:38:01;;;;;;;;;4.00;3.00;;;;;4.82;100.00;101879.28;5028546;28;46597;-79
2024/01/07 08:40:29;;;;;;;;;4.00;4.00;;;;;4.16;99.31;101790.63;5032924;28;45319;-80
2024/01/07 08:42:55;;;;;;;;;5.25;4.00;;;;;4.89;100.00;101904.56;5037230;28;45506;-83
2024/01/07 08:45:20;;;;;;;;;4.00;4.00;;;;;4.78;100.00;101859.25;5051343;28;45722;-80
2024/01/07 08:47:46;;;;;;;;;4.75;4.00;;;;;4.30;98.53;101795.78;5032997;28;46060;-79
2024/01/07 08:50:17;;;;;;;;;7.75;4.00;;;;;4.46;100.00;101802.66;5032712;28;45553;-79
2024/01/07 08:52:42;;;;;;;;;4.50;4.50;;;;;4.34;97.24;101805.38;5032162;28;45407;-79
2024/01/07 08:55:09;;;;;;;;;4.00;3.25;;;;;5.22;99.61;101936.69;5031166;28;45412;-78
2024/01/07 08:57:38;;;;;;;;;6.75;6.75;;;;;4.77;100.00;101845.28;5036074;28;47001;-79
2024/01/07 09:00:05;;;;;;;;;5.75;4.25;;;;;4.50;96.13;101824.47;5034927;28;45533;-79
2024/01/07 09:02:30;;;;;;;;;6.75;6.50;;;;;4.82;97.34;101879.28;5037210;28;45400;-82
2024/01/07 09:04:57;;;;;;;;;4.50;3.25;;;;;4.84;98.14;101896.75;5035645;28;45446;-80
2024/01/07 09:07:25;;;;;;;;;6.00;4.00;;;;;4.98;97.48;101928.97;5034115;28;46333;-81
2024/01/07 09:09:55;;;;;;;;;4.75;4.75;;;;;4.43;97.34;101804.44;5037665;28;45469;-81
2024/01/07 09:12:20;;;;;;;;;5.00;5.00;;;;;4.79;97.15;101881.94;5036109;28;45503;-82
2024/01/07 09:14:48;;;;;;;;;6.75;6.75;;;;;4.73;96.81;101844.41;5044989;28;45253;-82
2024/01/07 09:17:16;;;;;;;;;6.00;4.00;;;;;4.79;95.68;101850.47;5050532;28;46285;-81
2024/01/07 09:19:44;;;;;;;;;8.00;8.00;;;;;5.25;95.07;101976.00;5041073;28;45456;-83
2024/01/07 09:22:16;;;;;;;;;9.25;7.50;;;;;4.14;93.03;101783.66;5039667;28;45399;-81
2024/01/07 09:24:42;;;;;;;;;10.25;10.25;;;;;4.55;93.42;101864.59;5039534;28;45478;-80
2024/01/07 09:27:07;;;;;;;;;13.00;9.00;;;;;4.39;93.61;101837.63;5038001;28;47267;-80
2024/01/07 09:29:32;;;;;;;;;10.50;9.00;;;;;4.43;96.08;101835.84;5048530;28;45490;-79
2024/01/07 09:31:58;;;;;;;;;14.25;10.75;;;;;4.82;93.93;101906.38;5031012;28;46450;-81
2024/01/07 09:34:24;;;;;;;;;9.00;9.00;;;;;4.82;92.78;101892.38;5032985;28;45804;-82
2024/01/07 09:36:50;;;;;;;;;15.50;10.00;;;;;4.32;94.54;101783.53;5039269;28;46111;-80
2024/01/07 09:39:15;;;;;;;;;10.25;8.50;;;;;4.99;93.74;101914.13;5034070;28;45503;-80
2024/01/07 09:41:42;;;;;;;;;13.00;8.75;;;;;4.47;93.11;101842.81;5035710;28;45536;-80
2024/01/07 09:44:08;;;;;;;;;10.25;9.00;;;;;4.96;93.14;101929.88;5039537;28;45510;-78
2024/01/07 09:46:41;;;;;;;;;9.00;9.00;;;;;5.05;95.54;101950.78;5053176;28;46639;-83
2024/01/07 09:49:07;;;;;;;;;14.50;14.50;;;;;4.78;95.48;101867.09;5037686;28;45367;-81
2024/01/07 09:51:37;;;;;;;;;12.00;12.00;;;;;4.93;95.59;101899.31;5032828;28;45414;-85
2024/01/07 09:54:06;;;;;;;;;14.25;10.75;;;;;4.53;94.70;101855.88;5027435;28;45546;-83
2024/01/07 09:56:39;;;;;;;;;9.25;9.25;;;;;5.32;93.53;101991.69;5030877;28;45842;-82
2024/01/07 09:59:08;;;;;;;;;16.25;16.25;;;;;4.21;95.85;101803.69;5035264;28;45610;-84
2024/01/07 10:01:35;;;;;;;;;7.00;7.00;;;;;4.32;94.54;101801.03;5036917;28;45531;-82
2024/01/07 10:04:01;;;;;;;;;14.50;13.00;;;;;4.90;94.35;101895.84;5031544;28;45589;-81
2024/01/07 10:06:26;;;;;;;;;15.25;15.25;;;;;5.04;93.84;101955.16;5028904;28;47066;-81
2024/01/07 10:08:52;;;;;;;;;14.00;12.75;;;;;4.67;93.77;101880.25;5037658;28;45402;-80
2024/01/07 10:11:17;;;;;;;;;10.00;9.25;;;;;5.12;92.01;101990.06;5044968;28;45471;-81
2024/01/07 10:13:47;;;;;;;;;18.75;13.00;;;;;5.02;92.30;101945.56;5037650;28;45448;-80
2024/01/07 10:16:14;;;;;;;;;16.00;13.50;;;;;4.68;93.12;101887.22;5029789;28;45553;-79
2024/01/07 10:18:39;;;;;;;;;13.50;12.25;;;;;4.91;93.22;101923.81;5031455;28;45485;-80
2024/01/07 10:21:06;;;;;;;;;12.00;10.75;;;;;4.86;95.07;101897.63;5030286;28;45745;-81
2024/01/07 10:23:32;;;;;;;;;13.75;12.75;;;;;5.11;95.00;101950.75;5031017;28;45414;-81
2024/01/07 10:25:58;;;;;;;;;9.00;9.00;;;;;4.97;92.62;101914.16;5032999;28;46175;-82
2024/01/07 10:28:23;;;;;;;;;16.25;13.25;;;;;5.34;94.18;101956.69;5030366;28;45447;-82
2024/01/07 10:30:54;;;;;;;;;13.50;8.75;;;;;5.49;93.28;101974.97;5031241;28;45471;-81
2024/01/07 10:33:20;;;;;;;;;10.25;9.75;;;;;4.84;92.95;101873.19;5029914;28;45534;-81
2024/01/07 10:35:56;;;;;;;;;15.00;11.25;;;;;5.17;93.13;101942.88;5032639;28;46363;-82
2024/01/07 10:38:22;;;;;;;;;11.75;11.75;;;;;4.96;92.71;101878.31;5034320;28;45465;-79
2024/01/07 10:40:55;;;;;;;;;15.25;12.50;;;;;5.08;92.58;101928.03;5027817;28;45478;-80
2024/01/07 10:43:30;;;;;;;;;;;;;;;;;;;;;
2024/01/07 10:46:01;;;;;;;;;21.75;15.25;;;;;5.40;91.55;101969.78;5026225;28;74173;-79
2024/01/07 10:48:35;;;;;;;;;14.50;13.50;;;;;5.53;91.52;101989.78;5024802;28;45408;-82
2024/01/07 10:51:01;;;;;;;;;21.00;13.75;;;;;5.28;91.00;101934.91;5026045;28;45502;-79
2024/01/07 10:53:32;;;;;;;;;16.50;13.75;;;;;4.38;92.74;101803.59;5009271;28;45467;-80
2024/01/07 10:56:05;;;;;;;;;15.25;14.00;;;;;5.49;93.60;101974.09;5024630;28;46419;-79
2024/01/07 10:58:37;;;;;;;;;13.00;12.00;;;;;5.49;92.89;101980.22;5025548;28;45596;-79
2024/01/07 11:01:05;;;;;;;;;6.75;4.50;;;;;5.19;94.49;101922.72;5024418;28;45360;-84
2024/01/07 11:03:51;;;;;;;;;15.50;14.25;;;;;5.00;92.53;101913.25;5029327;28;45503;-81
2024/01/07 11:06:26;;;;;;;;;14.25;12.00;;;;;5.37;94.45;101982.91;5025297;28;46052;-79
2024/01/07 11:09:03;;;;;;;;;14.00;13.25;;;;;5.50;93.52;101968.81;5026986;28;45445;-80
2024/01/07 11:11:37;;;;;;;;;18.00;16.50;;;;;4.87;97.06;101888.88;5025413;28;45502;-80
2024/01/07 11:14:36;;;;;;;;;20.00;18.25;;;;;5.57;95.00;101991.50;5025392;28;45428;-80
2024/01/07 11:17:03;;;;;;;;;18.25;16.75;;;;;5.03;94.38;101893.13;5022645;28;47059;-81
2024/01/07 11:19:29;;;;;;;;;22.25;18.00;;;;;4.72;96.39;101873.22;5027867;28;45296;-81
2024/01/07 11:22:22;;;;;;;;;19.50;16.25;;;;;4.90;95.72;101883.63;5024361;28;45532;-80
2024/01/07 11:24:51;;;;;;;;;22.50;17.25;;;;;5.55;95.17;102030.03;5016783;28;45305;-81
2024/01/07 11:27:17;;;;;;;;;20.50;20.50;;;;;4.81;94.97;101885.44;5027345;28;45463;-81